createdAt,value
2023-02-12T00:01:59.403Z,62.40
2023-02-12T00:04:25.914Z,56.58
2023-02-12T00:06:52.398Z,58.67
2023-02-12T00:09:18.872Z,60.40
2023-02-12T00:11:45.331Z,63.83
2023-02-12T00:14:11.918Z,60.88
2023-02-12T00:16:38.806Z,60.30
2023-02-12T00:19:05.193Z,59.17
2023-02-12T00:21:31.800Z,58.53
2023-02-12T00:23:58.467Z,62.35
2023-02-12T00:26:25.194Z,78.50
2023-02-12T00:28:52.430Z,66.47
2023-02-12T00:31:21.586Z,72.47
2023-02-12T00:33:48.848Z,64.30
2023-02-12T00:36:18.255Z,64.68
2023-02-12T00:38:45.554Z,66.80
2023-02-12T00:41:12.949Z,62.00
2023-02-12T00:43:39.898Z,52.47
2023-02-12T00:46:07.286Z,59.08
2023-02-12T00:48:34.648Z,62.42
2023-02-12T00:51:01.276Z,59.30
2023-02-12T00:53:28.112Z,57.72
2023-02-12T00:55:55.317Z,60.25
2023-02-12T00:58:22.521Z,59.08
2023-02-12T01:00:49.374Z,62.80
2023-02-12T01:03:16.574Z,58.42
2023-02-12T01:05:43.572Z,62.67
2023-02-12T01:08:15.448Z,55.60
2023-02-12T01:10:42.884Z,63.78
2023-02-12T01:13:13.818Z,60.28
2023-02-12T01:15:41.599Z,64.35
2023-02-12T01:18:08.544Z,60.78
2023-02-12T01:20:35.172Z,59.20
2023-02-12T01:23:02.103Z,63.28
2023-02-12T01:25:28.534Z,64.38
2023-02-12T01:27:56.065Z,61.28
2023-02-12T01:30:24.146Z,64.00
2023-02-12T01:32:50.855Z,60.13
2023-02-12T01:35:17.842Z,62.10
2023-02-12T01:37:44.277Z,63.55
2023-02-12T01:40:15.633Z,52.72
2023-02-12T01:42:42.101Z,57.65
2023-02-12T01:45:14.803Z,58.10
2023-02-12T01:47:45.281Z,60.95
2023-02-12T01:50:17.346Z,51.95
2023-02-12T01:52:48.928Z,56.72
2023-02-12T01:55:16.007Z,66.25
2023-02-12T01:57:46.719Z,65.40
2023-02-12T02:00:19.625Z,60.92
2023-02-12T02:02:51.890Z,68.53
2023-02-12T02:05:26.886Z,63.28
2023-02-12T02:07:54.446Z,66.80
2023-02-12T02:10:20.921Z,61.58
2023-02-12T02:13:06.722Z,62.90
2023-02-12T02:15:33.757Z,61.92
2023-02-12T02:18:22.261Z,63.25
2023-02-12T02:21:31.723Z,59.17
2023-02-12T02:24:23.319Z,66.53
2023-02-12T02:27:17.101Z,64.85
2023-02-12T02:30:15.669Z,60.97
2023-02-12T02:32:48.702Z,63.15
2023-02-12T02:35:20.554Z,63.33
2023-02-12T02:38:03.512Z,57.15
2023-02-12T02:40:39.366Z,69.18
2023-02-12T02:43:11.396Z,64.97
2023-02-12T02:45:43.143Z,72.78
2023-02-12T02:48:12.560Z,77.65
2023-02-12T02:50:42.789Z,71.72
2023-02-12T02:53:15.036Z,77.68
2023-02-12T02:55:51.470Z,79.18
2023-02-12T02:58:23.497Z,86.40
2023-02-12T03:01:00.522Z,84.63
2023-02-12T03:03:39.605Z,75.13
2023-02-12T03:06:12.429Z,75.18
2023-02-12T03:08:49.555Z,79.75
2023-02-12T03:11:29.976Z,86.03
2023-02-12T03:14:19.344Z,73.22
2023-02-12T03:16:58.015Z,88.97
2023-02-12T03:19:32.492Z,88.65
2023-02-12T03:22:09.278Z,91.35
2023-02-12T03:25:16.800Z,87.68
2023-02-12T03:28:12.273Z,81.55
2023-02-12T03:31:00.714Z,82.60
2023-02-12T03:33:47.788Z,97.32
2023-02-12T03:36:42.447Z,102.95
2023-02-12T03:39:16.583Z,80.35
2023-02-12T03:42:19.268Z,88.68
2023-02-12T03:44:57.410Z,99.88
2023-02-12T03:47:43.513Z,92.88
2023-02-12T03:50:28.361Z,86.30
2023-02-12T03:52:55.091Z,110.75
2023-02-12T03:55:21.592Z,88.80
2023-02-12T03:57:55.893Z,84.80
2023-02-12T04:00:24.466Z,87.70
2023-02-12T04:02:52.907Z,93.13
2023-02-12T04:05:23.593Z,83.65
2023-02-12T04:07:51.841Z,83.93
2023-02-12T04:10:20.540Z,95.47
2023-02-12T04:12:54.941Z,95.43
2023-02-12T04:15:43.772Z,92.10
2023-02-12T04:18:20.016Z,113.03
2023-02-12T04:21:17.288Z,98.80
2023-02-12T04:24:05.859Z,102.13
2023-02-12T04:26:48.345Z,95.90
2023-02-12T04:29:50.137Z,93.63
2023-02-12T04:32:39.695Z,94.25
2023-02-12T04:35:26.342Z,105.13
2023-02-12T04:37:59.535Z,92.13
2023-02-12T04:40:26.764Z,99.10
2023-02-12T04:42:54.212Z,94.47
2023-02-12T04:45:33.724Z,82.85
2023-02-12T04:48:01.291Z,84.65
2023-02-12T04:50:42.403Z,98.85
2023-02-12T04:53:09.682Z,94.18
2023-02-12T04:55:39.567Z,100.07
2023-02-12T04:58:06.426Z,97.97
2023-02-12T05:00:33.069Z,116.85
2023-02-12T05:02:59.600Z,110.72
2023-02-12T05:05:27.102Z,108.35
2023-02-12T05:07:53.699Z,112.10
2023-02-12T05:10:20.582Z,99.05
2023-02-12T05:12:47.471Z,96.63
2023-02-12T05:15:14.175Z,97.43
2023-02-12T05:17:40.969Z,93.93
2023-02-12T05:20:08.971Z,90.93
2023-02-12T05:22:35.438Z,75.20
2023-02-12T05:25:02.069Z,78.05
2023-02-12T05:27:28.531Z,84.85
2023-02-12T05:29:56.711Z,82.35
2023-02-12T05:32:24.273Z,92.20
2023-02-12T05:34:51.165Z,85.07
2023-02-12T05:37:17.564Z,75.95
2023-02-12T05:39:44.095Z,91.45
2023-02-12T05:42:10.501Z,80.22
2023-02-12T05:44:40.578Z,98.63
2023-02-12T05:47:07.004Z,79.10
2023-02-12T05:49:34.037Z,85.68
2023-02-12T05:52:00.551Z,84.72
2023-02-12T05:54:27.072Z,81.05
2023-02-12T05:56:53.884Z,80.55
2023-02-12T05:59:22.861Z,83.25
2023-02-12T06:01:51.500Z,96.90
2023-02-12T06:04:23.905Z,89.30
2023-02-12T06:06:54.145Z,97.45
2023-02-12T06:09:20.565Z,84.65
2023-02-12T06:11:47.123Z,91.20
2023-02-12T06:14:16.371Z,106.20
2023-02-12T06:16:50.507Z,105.57
2023-02-12T06:19:17.936Z,95.57
2023-02-12T06:21:44.841Z,95.68
2023-02-12T06:24:13.446Z,101.43
2023-02-12T06:26:40.638Z,93.65
2023-02-12T06:29:07.098Z,96.80
2023-02-12T06:31:36.445Z,103.15
2023-02-12T06:34:11.232Z,99.38
2023-02-12T06:36:40.333Z,112.47
2023-02-12T06:39:07.371Z,129.50
2023-02-12T06:41:34.028Z,125.35
2023-02-12T06:44:00.647Z,112.60
2023-02-12T06:46:27.280Z,100.03
2023-02-12T06:48:56.004Z,83.85
2023-02-12T06:51:23.492Z,103.25
2023-02-12T06:53:52.195Z,91.82
2023-02-12T06:56:20.020Z,82.85
2023-02-12T06:58:48.324Z,88.10
2023-02-12T07:01:18.073Z,99.28
2023-02-12T07:03:52.090Z,95.57
2023-02-12T07:06:19.207Z,105.40
2023-02-12T07:08:46.401Z,89.90
2023-02-12T07:11:13.880Z,98.63
2023-02-12T07:13:41.832Z,87.65
2023-02-12T07:16:12.460Z,98.75
2023-02-12T07:18:39.844Z,109.82
2023-02-12T07:21:07.601Z,94.68
2023-02-12T07:23:34.852Z,105.75
2023-02-12T07:26:04.563Z,114.47
2023-02-12T07:28:34.645Z,92.88
2023-02-12T07:31:08.492Z,112.85
2023-02-12T07:33:36.571Z,117.53
2023-02-12T07:36:06.576Z,107.97
2023-02-12T07:38:36.032Z,109.00
2023-02-12T07:41:14.601Z,122.43
2023-02-12T07:43:46.176Z,120.65
2023-02-12T07:46:16.998Z,123.15
2023-02-12T07:48:44.611Z,120.72
2023-02-12T07:51:14.440Z,133.57
2023-02-12T07:53:41.746Z,130.60
2023-02-12T07:56:10.987Z,130.68
2023-02-12T07:58:39.364Z,129.15
2023-02-12T08:01:36.430Z,131.25
2023-02-12T08:04:23.238Z,122.85
2023-02-12T08:06:53.904Z,138.85
2023-02-12T08:09:22.968Z,127.68
2023-02-12T08:11:49.777Z,117.82
2023-02-12T08:14:19.357Z,115.50
2023-02-12T08:16:47.763Z,114.57
2023-02-12T08:19:20.276Z,110.93
2023-02-12T08:21:53.064Z,102.93
2023-02-12T08:24:22.278Z,114.63
2023-02-12T08:26:49.433Z,102.93
2023-02-12T08:29:19.140Z,107.00
2023-02-12T08:31:48.331Z,105.63
2023-02-12T08:34:26.136Z,114.35
2023-02-12T08:36:54.174Z,125.25
2023-02-12T08:39:22.542Z,139.35
2023-02-12T08:41:49.403Z,140.80
2023-02-12T08:44:16.737Z,143.65
2023-02-12T08:46:47.142Z,120.60
2023-02-12T08:49:22.355Z,132.65
2023-02-12T08:51:51.241Z,143.88
2023-02-12T08:54:23.655Z,118.80
2023-02-12T08:56:51.261Z,142.35
2023-02-12T08:59:17.783Z,122.55
2023-02-12T09:01:45.020Z,118.90
2023-02-12T09:04:38.072Z,118.50
2023-02-12T09:07:04.529Z,121.38
2023-02-12T09:09:30.934Z,113.88
2023-02-12T09:11:57.399Z,112.75
2023-02-12T09:14:24.685Z,117.20
2023-02-12T09:16:57.173Z,108.57
2023-02-12T09:19:24.120Z,115.53
2023-02-12T09:21:55.479Z,105.80
2023-02-12T09:24:22.895Z,117.70
2023-02-12T09:26:49.738Z,101.25
2023-02-12T09:29:16.163Z,101.82
2023-02-12T09:31:42.887Z,90.35
2023-02-12T09:34:09.692Z,93.05
2023-02-12T09:36:36.640Z,79.60
2023-02-12T09:39:03.988Z,92.35
2023-02-12T09:41:42.621Z,84.20
2023-02-12T09:44:33.106Z,75.95
2023-02-12T09:47:21.370Z,73.32
2023-02-12T09:50:12.723Z,67.18
2023-02-12T09:52:40.012Z,74.45
2023-02-12T09:55:10.932Z,72.18
2023-02-12T09:57:38.415Z,75.03
2023-02-12T10:00:15.394Z,79.18
2023-02-12T10:02:42.761Z,75.20
2023-02-12T10:05:41.055Z,89.07
2023-02-12T10:08:16.908Z,66.28
2023-02-12T10:11:02.021Z,77.80
2023-02-12T10:13:56.348Z,75.63
2023-02-12T10:16:38.644Z,79.10
2023-02-12T10:19:21.400Z,87.28
2023-02-12T10:22:01.971Z,75.82
2023-02-12T10:24:31.455Z,64.53
2023-02-12T10:27:03.137Z,76.80
2023-02-12T10:29:34.058Z,68.03
2023-02-12T10:32:06.578Z,79.20
2023-02-12T10:34:36.816Z,69.85
2023-02-12T10:37:38.732Z,75.07
2023-02-12T10:40:19.023Z,71.53
2023-02-12T10:42:50.119Z,68.70
2023-02-12T10:45:20.741Z,64.10
2023-02-12T10:47:52.355Z,71.25
2023-02-12T10:50:38.085Z,62.03
2023-02-12T10:53:04.762Z,60.25
2023-02-12T10:55:36.685Z,64.15
2023-02-12T10:58:04.879Z,50.83
2023-02-12T11:00:38.178Z,59.15
2023-02-12T11:03:13.775Z,48.42
2023-02-12T11:05:44.022Z,63.80
2023-02-12T11:08:31.487Z,54.72
2023-02-12T11:11:08.731Z,52.55
2023-02-12T11:13:36.842Z,50.80
2023-02-12T11:16:03.946Z,52.60
2023-02-12T11:18:37.211Z,44.80
2023-02-12T11:21:03.706Z,46.45
2023-02-12T11:23:34.939Z,48.85
2023-02-12T11:26:20.789Z,47.95
2023-02-12T11:29:01.757Z,45.92
2023-02-12T11:31:35.327Z,44.08
2023-02-12T11:34:04.557Z,42.83
2023-02-12T11:36:35.720Z,49.28
2023-02-12T11:39:02.777Z,44.05
2023-02-12T11:41:36.458Z,41.45
2023-02-12T11:44:19.287Z,48.38
2023-02-12T11:46:54.177Z,39.88
2023-02-12T11:49:25.752Z,41.60
2023-02-12T11:51:53.949Z,38.88
2023-02-12T11:54:28.118Z,37.47
2023-02-12T11:56:57.658Z,42.53
2023-02-12T11:59:45.928Z,39.03
2023-02-12T12:02:39.006Z,42.15
2023-02-12T12:05:15.318Z,41.33
2023-02-12T12:07:52.162Z,37.50
2023-02-12T12:10:42.815Z,40.22
2023-02-12T12:13:17.757Z,34.30
2023-02-12T12:16:07.961Z,40.28
2023-02-12T12:19:13.624Z,37.65
2023-02-12T12:21:43.407Z,39.55
2023-02-12T12:24:17.271Z,41.88
2023-02-12T12:26:50.456Z,35.85
2023-02-12T12:29:24.160Z,40.35
2023-02-12T12:31:55.382Z,36.72
2023-02-12T12:34:27.655Z,34.67
2023-02-12T12:37:11.910Z,39.17
2023-02-12T12:39:47.085Z,40.38
2023-02-12T12:45:20.725Z,40.70
2023-02-12T12:48:02.544Z,39.83
2023-02-12T12:50:44.174Z,36.60
2023-02-12T12:53:29.440Z,45.63
2023-02-12T12:56:11.462Z,39.17
2023-02-12T12:58:53.267Z,41.47
2023-02-12T13:01:46.990Z,42.70
2023-02-12T13:04:42.939Z,38.30
2023-02-12T13:10:27.413Z,31.38
2023-02-12T13:13:18.993Z,29.83
2023-02-12T13:16:07.542Z,29.33
2023-02-12T13:18:52.854Z,17.40
2023-02-12T13:21:41.825Z,22.52
2023-02-12T13:24:24.515Z,29.95
2023-02-12T13:26:56.542Z,28.88
2023-02-12T13:29:31.093Z,28.02
2023-02-12T13:32:02.763Z,30.42
2023-02-12T13:34:32.428Z,23.85
2023-02-12T13:37:04.361Z,32.28
2023-02-12T13:39:39.037Z,28.40
2023-02-12T13:42:15.775Z,37.58
2023-02-12T13:45:24.757Z,27.20
2023-02-12T13:47:59.774Z,20.65
2023-02-12T13:50:48.566Z,20.92
2023-02-12T13:53:27.283Z,20.98
2023-02-12T13:56:27.642Z,20.98
2023-02-12T13:59:00.454Z,20.13
2023-02-12T14:01:45.826Z,20.17
2023-02-12T14:04:33.895Z,24.27
2023-02-12T14:07:07.858Z,22.25
2023-02-12T14:09:43.456Z,23.40
2023-02-12T14:12:25.025Z,20.90
2023-02-12T14:14:55.887Z,29.40
2023-02-12T14:17:28.217Z,18.52
2023-02-12T14:20:06.817Z,22.67
2023-02-12T14:22:33.158Z,23.88
2023-02-12T14:25:10.209Z,25.02
2023-02-12T14:27:51.122Z,20.15
2023-02-12T14:30:17.544Z,14.30
2023-02-12T14:33:07.461Z,17.85
2023-02-12T14:35:41.855Z,17.73
2023-02-12T14:38:20.324Z,14.68
2023-02-12T14:40:48.584Z,17.15
2023-02-12T14:43:55.327Z,15.20
2023-02-12T14:46:24.708Z,21.63
2023-02-12T14:49:05.946Z,14.30
2023-02-12T14:51:42.769Z,20.65
2023-02-12T14:54:26.618Z,20.77
2023-02-12T14:56:55.912Z,16.40
2023-02-12T14:59:25.970Z,16.83
2023-02-12T15:01:54.754Z,20.33
2023-02-12T15:04:21.124Z,19.23
2023-02-12T15:07:22.628Z,16.02
2023-02-12T15:10:00.349Z,15.35
2023-02-12T15:12:32.701Z,16.13
2023-02-12T15:15:06.067Z,15.30
2023-02-12T15:17:37.493Z,17.02
2023-02-12T15:20:25.349Z,15.63
2023-02-12T15:22:51.775Z,15.70
2023-02-12T15:25:24.600Z,20.80
2023-02-12T15:27:55.558Z,20.95
2023-02-12T15:30:26.686Z,21.95
2023-02-12T15:32:56.520Z,23.60
2023-02-12T15:35:26.716Z,23.60
2023-02-12T15:37:55.908Z,24.23
2023-02-12T15:40:22.896Z,27.38
2023-02-12T15:43:04.868Z,17.77
2023-02-12T15:45:36.183Z,17.88
2023-02-12T15:48:09.718Z,21.65
2023-02-12T15:50:55.914Z,17.45
2023-02-12T15:53:24.484Z,16.40
2023-02-12T15:55:51.709Z,17.35
2023-02-12T15:58:27.616Z,15.90
2023-02-12T16:01:00.127Z,19.88
2023-02-12T16:03:31.676Z,26.50
2023-02-12T16:06:04.529Z,18.85
2023-02-12T16:08:33.724Z,16.55
2023-02-12T16:11:13.976Z,16.55
2023-02-12T16:13:45.633Z,15.25
2023-02-12T16:16:12.068Z,17.08
2023-02-12T16:18:40.161Z,19.85
2023-02-12T16:21:15.848Z,20.27
2023-02-12T16:23:44.823Z,20.35
2023-02-12T16:26:23.379Z,18.77
2023-02-12T16:28:54.146Z,18.42
2023-02-12T16:31:23.982Z,22.90
2023-02-12T16:33:54.119Z,22.88
2023-02-12T16:36:20.641Z,31.52
2023-02-12T16:39:02.156Z,23.25
2023-02-12T16:41:31.890Z,21.10
2023-02-12T16:44:01.502Z,24.38
2023-02-12T16:46:34.342Z,22.60
2023-02-12T16:49:02.818Z,20.50
2023-02-12T16:51:36.652Z,22.75
2023-02-12T16:54:23.860Z,23.83
2023-02-12T16:56:50.632Z,21.40
2023-02-12T16:59:17.184Z,23.45
2023-02-12T17:02:03.816Z,20.40
2023-02-12T17:04:31.008Z,19.23
2023-02-12T17:06:58.186Z,20.02
2023-02-12T17:09:24.842Z,20.02
2023-02-12T17:11:51.613Z,24.83
2023-02-12T17:14:19.909Z,20.95
2023-02-12T17:16:47.152Z,25.55
2023-02-12T17:19:15.267Z,25.70
2023-02-12T17:21:49.303Z,22.98
2023-02-12T17:24:18.641Z,19.65
2023-02-12T17:26:45.585Z,20.58
2023-02-12T17:29:12.259Z,18.88
2023-02-12T17:31:38.892Z,18.10
2023-02-12T17:34:05.660Z,21.27
2023-02-12T17:36:33.028Z,20.38
2023-02-12T17:39:00.050Z,20.90
2023-02-12T17:41:26.948Z,22.00
2023-02-12T17:43:53.600Z,28.80
2023-02-12T17:46:25.770Z,29.67
2023-02-12T17:48:52.427Z,23.90
2023-02-12T17:51:19.987Z,22.48
2023-02-12T17:53:46.899Z,20.70
2023-02-12T17:56:19.010Z,24.25
2023-02-12T17:58:46.121Z,21.50
2023-02-12T18:01:15.397Z,20.60
2023-02-12T18:03:42.137Z,18.20
2023-02-12T18:06:13.834Z,19.80
2023-02-12T18:08:41.643Z,21.67
2023-02-12T18:11:10.320Z,17.95
2023-02-12T18:13:37.923Z,23.50
2023-02-12T18:16:09.444Z,20.73
2023-02-12T18:18:37.166Z,23.63
2023-02-12T18:21:08.837Z,22.98
2023-02-12T18:23:36.270Z,21.05
2023-02-12T18:26:08.406Z,18.02
2023-02-12T18:28:35.623Z,20.08
2023-02-12T18:31:02.548Z,24.70
2023-02-12T18:33:29.317Z,16.05
2023-02-12T18:36:00.523Z,25.05
2023-02-12T18:38:27.018Z,21.75
2023-02-12T18:40:54.434Z,22.17
2023-02-12T18:43:21.912Z,23.50
2023-02-12T18:45:49.200Z,19.40
2023-02-12T18:48:15.959Z,20.58
2023-02-12T18:50:42.435Z,19.10
2023-02-12T18:53:09.139Z,17.45
2023-02-12T18:55:37.925Z,18.85
2023-02-12T18:58:04.498Z,24.33
2023-02-12T19:00:30.922Z,21.77
2023-02-12T19:02:57.558Z,20.98
2023-02-12T19:05:24.043Z,43.58
2023-02-12T19:07:52.556Z,27.45
2023-02-12T19:10:18.984Z,21.95
2023-02-12T19:12:45.643Z,26.85
2023-02-12T19:15:13.181Z,23.27
2023-02-12T19:17:39.648Z,40.58
2023-02-12T19:20:06.739Z,22.67
2023-02-12T19:22:33.317Z,23.35
2023-02-12T19:25:00.268Z,16.08
2023-02-12T19:27:26.863Z,16.67
2023-02-12T19:29:53.258Z,16.98
2023-02-12T19:32:19.714Z,19.73
2023-02-12T19:34:46.441Z,20.23
2023-02-12T19:37:13.780Z,18.10
2023-02-12T19:39:40.470Z,16.88
2023-02-12T19:42:07.308Z,13.15
2023-02-12T19:44:33.687Z,15.88
2023-02-12T19:47:00.512Z,13.07
2023-02-12T19:49:29.811Z,16.80
2023-02-12T19:51:56.260Z,13.48
2023-02-12T19:54:23.687Z,15.15
2023-02-12T19:56:51.609Z,14.05
2023-02-12T19:59:20.967Z,12.63
2023-02-12T20:01:48.983Z,18.67
2023-02-12T20:04:19.590Z,14.85
2023-02-12T20:06:47.242Z,15.13
2023-02-12T20:09:14.562Z,16.13
2023-02-12T20:11:41.334Z,17.95
2023-02-12T20:14:10.949Z,19.23
2023-02-12T20:16:41.470Z,21.48
2023-02-12T20:19:20.316Z,18.60
2023-02-12T20:21:53.130Z,16.63
2023-02-12T20:24:21.076Z,20.80
2023-02-12T20:26:47.649Z,20.67
2023-02-12T20:29:14.260Z,18.63
2023-02-12T20:31:43.359Z,37.90
2023-02-12T20:34:13.563Z,28.00
2023-02-12T20:36:42.326Z,20.67
2023-02-12T20:39:11.298Z,35.03
2023-02-12T20:41:38.152Z,22.52
2023-02-12T20:44:07.172Z,25.30
2023-02-12T20:46:42.511Z,26.33
2023-02-12T20:49:10.563Z,18.33
2023-02-12T20:51:37.210Z,27.10
2023-02-12T20:54:03.901Z,20.40
2023-02-12T20:56:33.908Z,18.15
2023-02-12T20:59:00.867Z,24.30
2023-02-12T21:01:34.639Z,22.17
2023-02-12T21:04:08.014Z,22.65
2023-02-12T21:06:35.648Z,26.13
2023-02-12T21:09:02.711Z,20.42
2023-02-12T21:11:29.558Z,22.20
2023-02-12T21:13:59.393Z,23.13
2023-02-12T21:16:29.353Z,38.67
2023-02-12T21:18:56.633Z,34.08
2023-02-12T21:21:26.597Z,22.40
2023-02-12T21:23:55.863Z,37.72
2023-02-12T21:26:24.667Z,27.75
2023-02-12T21:28:52.630Z,24.33
2023-02-12T21:31:22.070Z,20.85
2023-02-12T21:33:50.302Z,22.60
2023-02-12T21:36:20.191Z,25.42
2023-02-12T21:38:49.039Z,24.63
2023-02-12T21:41:24.709Z,30.38
2023-02-12T21:43:53.604Z,23.45
2023-02-12T21:46:22.331Z,21.15
2023-02-12T21:48:50.276Z,23.23
2023-02-12T21:51:21.011Z,27.55
2023-02-12T21:53:49.167Z,42.20
2023-02-12T21:56:16.774Z,30.88
2023-02-12T21:58:43.828Z,27.67
2023-02-12T22:01:25.462Z,24.50
2023-02-12T22:03:52.538Z,23.88
2023-02-12T22:06:22.189Z,22.25
2023-02-12T22:08:49.863Z,20.98
2023-02-12T22:11:17.179Z,27.05
2023-02-12T22:13:43.673Z,23.23
2023-02-12T22:16:12.874Z,18.08
2023-02-12T22:18:41.042Z,21.13
2023-02-12T22:21:12.731Z,20.75
2023-02-12T22:23:40.096Z,28.85
2023-02-12T22:26:18.228Z,32.28
2023-02-12T22:28:48.051Z,23.02
2023-02-12T22:31:19.767Z,29.73
2023-02-12T22:33:48.586Z,26.00
2023-02-12T22:36:17.776Z,25.02
2023-02-12T22:38:45.486Z,25.38
2023-02-12T22:41:11.849Z,23.42
2023-02-12T22:43:39.914Z,35.53
2023-02-12T22:46:07.954Z,25.63
2023-02-12T22:48:35.395Z,25.60
2023-02-12T22:51:28.248Z,19.98
2023-02-12T22:53:55.653Z,24.92
2023-02-12T22:56:23.073Z,21.25
2023-02-12T22:58:54.831Z,22.13
2023-02-12T23:01:22.015Z,23.42
2023-02-12T23:03:48.473Z,21.27
2023-02-12T23:06:18.373Z,22.83
2023-02-12T23:08:48.434Z,22.33
2023-02-12T23:11:14.820Z,22.75
2023-02-12T23:13:41.574Z,21.30
2023-02-12T23:16:08.079Z,24.98
2023-02-12T23:18:35.107Z,19.05
2023-02-12T23:21:02.503Z,18.98
2023-02-12T23:23:29.009Z,24.67
2023-02-12T23:25:55.888Z,20.98
2023-02-12T23:28:23.220Z,21.15
2023-02-12T23:30:51.495Z,24.15
2023-02-12T23:33:19.645Z,21.20
2023-02-12T23:35:46.987Z,26.40
2023-02-12T23:38:13.513Z,28.33
2023-02-12T23:40:40.668Z,23.35
2023-02-12T23:43:08.260Z,26.02
2023-02-12T23:45:34.819Z,20.00
2023-02-12T23:48:01.217Z,23.35
2023-02-12T23:50:27.936Z,25.77
2023-02-12T23:52:54.697Z,21.27
2023-02-12T23:55:21.461Z,22.95
2023-02-12T23:57:49.667Z,22.63
